Time;durP1;ratioP1;P1;durP2;ratioP2;P2;SDS_P1;SDS_P2;PMS_P1;PMS_P2;Temp;Humidity;BMP_temperature;BMP_pressure;BME280_temperature;BME280_humidity;BME280_pressure;Samples;Min_cycle;Max_cycle;Signal;HPM_P1;HPM_P2
2023/09/26 00:00:24;;;;;;;0.00;0.00;;;22.50;97.10;;;;;;5052012;28;20408;-75
2023/09/26 00:02:53;;;;;;;0.00;0.00;;;22.50;97.00;;;;;;5049874;28;20934;-74
2023/09/26 00:05:22;;;;;;;0.00;0.00;;;22.50;97.00;;;;;;5052062;28;20810;-74
2023/09/26 00:07:49;;;;;;;0.00;0.00;;;22.50;97.00;;;;;;5069167;28;20411;-74
2023/09/26 00:10:16;;;;;;;0.00;0.00;;;22.50;97.10;;;;;;5073209;28;20401;-73
2023/09/26 00:12:42;;;;;;;0.00;0.00;;;22.50;97.20;;;;;;5057720;28;21013;-73
2023/09/26 00:15:11;;;;;;;0.00;0.00;;;22.50;97.20;;;;;;5065702;28;20460;-74
2023/09/26 00:17:37;;;;;;;0.00;0.00;;;22.50;97.20;;;;;;5053115;28;20406;-73
2023/09/26 00:20:09;;;;;;;0.00;0.00;;;22.50;97.20;;;;;;5068574;28;20930;-73
2023/09/26 00:22:36;;;;;;;0.00;0.00;;;22.50;97.30;;;;;;5048216;28;20434;-73
2023/09/26 00:25:03;;;;;;;0.00;0.00;;;22.50;97.30;;;;;;5066749;28;20400;-73
2023/09/26 00:27:29;;;;;;;0.00;0.00;;;22.50;97.30;;;;;;5061756;28;20427;-72
2023/09/26 00:29:56;;;;;;;0.00;0.00;;;22.60;97.00;;;;;;5067451;28;20419;-73
2023/09/26 00:32:23;;;;;;;0.00;0.00;;;22.50;97.00;;;;;;5073869;28;20403;-73
2023/09/26 00:34:50;;;;;;;0.00;0.00;;;22.50;97.00;;;;;;5063418;28;20407;-73
2023/09/26 00:37:16;;;;;;;0.00;0.00;;;22.50;96.90;;;;;;5063446;28;20411;-73
2023/09/26 00:39:42;;;;;;;0.00;0.00;;;22.50;96.90;;;;;;5042632;28;20400;-72
2023/09/26 00:42:08;;;;;;;0.00;0.00;;;22.40;96.90;;;;;;5066919;28;20468;-73
2023/09/26 00:44:35;;;;;;;0.00;0.00;;;22.40;96.90;;;;;;5066649;28;20913;-73
2023/09/26 00:47:01;;;;;;;0.00;0.00;;;22.40;97.00;;;;;;5058717;28;20409;-73
2023/09/26 00:49:31;;;;;;;0.00;0.00;;;22.40;97.10;;;;;;5062689;28;20813;-73
2023/09/26 00:52:03;;;;;;;0.00;0.00;;;22.30;97.30;;;;;;5064541;28;20410;-73
2023/09/26 00:54:30;;;;;;;0.00;0.00;;;22.40;97.30;;;;;;5063449;28;21119;-73
2023/09/26 00:56:58;;;;;;;0.00;0.00;;;22.40;97.20;;;;;;5052608;28;20492;-73
2023/09/26 00:59:26;;;;;;;0.00;0.00;;;22.40;97.20;;;;;;5072432;28;20423;-73
2023/09/26 01:01:54;;;;;;;0.00;0.00;;;22.40;97.20;;;;;;5053277;28;20513;-74
2023/09/26 01:04:22;;;;;;;0.00;0.00;;;22.40;97.30;;;;;;5084584;28;20444;-74
2023/09/26 01:06:48;;;;;;;0.00;0.00;;;22.40;97.30;;;;;;5062008;28;20422;-74
2023/09/26 01:09:15;;;;;;;0.00;0.00;;;22.40;97.90;;;;;;5054246;28;21271;-74
2023/09/26 01:11:42;;;;;;;0.00;0.00;;;22.30;97.70;;;;;;5066697;28;20501;-74
2023/09/26 01:14:09;;;;;;;0.00;0.00;;;22.30;97.80;;;;;;5083821;28;20440;-74
2023/09/26 01:16:35;;;;;;;0.00;0.00;;;22.30;97.70;;;;;;5079314;28;21150;-73
2023/09/26 01:19:01;;;;;;;0.00;0.00;;;22.30;97.50;;;;;;5076451;28;21271;-74
2023/09/26 01:21:28;;;;;;;0.00;0.00;;;22.30;97.40;;;;;;5082873;28;20492;-74
2023/09/26 01:23:56;;;;;;;0.00;0.00;;;22.30;97.50;;;;;;5085996;28;20394;-74
2023/09/26 01:26:24;;;;;;;0.00;0.00;;;22.30;97.60;;;;;;5066993;28;20403;-73
2023/09/26 01:28:50;;;;;;;0.00;0.00;;;22.30;97.50;;;;;;5043704;28;20415;-74
2023/09/26 01:31:17;;;;;;;0.00;0.00;;;22.20;97.40;;;;;;5068063;28;20404;-74
2023/09/26 01:33:44;;;;;;;0.00;0.00;;;22.20;97.50;;;;;;5079036;28;20493;-74
2023/09/26 01:36:10;;;;;;;0.00;0.00;;;22.10;97.60;;;;;;5069739;28;20410;-74
2023/09/26 01:38:38;;;;;;;0.00;0.00;;;22.10;97.70;;;;;;5083257;28;20419;-74
2023/09/26 01:41:05;;;;;;;0.00;0.00;;;22.00;97.70;;;;;;5069329;28;20905;-74
2023/09/26 01:43:31;;;;;;;0.00;0.00;;;22.00;97.80;;;;;;5083378;28;20903;-74
2023/09/26 01:45:58;;;;;;;0.00;0.00;;;22.00;97.80;;;;;;5054886;28;20426;-74
2023/09/26 01:48:26;;;;;;;0.00;0.00;;;21.90;97.90;;;;;;5081210;28;20508;-73
2023/09/26 01:50:53;;;;;;;0.00;0.00;;;21.90;98.10;;;;;;5084087;28;20488;-74
2023/09/26 01:53:19;;;;;;;0.00;0.00;;;21.90;98.20;;;;;;5063361;28;20395;-73
2023/09/26 01:55:45;;;;;;;0.00;0.00;;;21.80;98.20;;;;;;5057847;28;20832;-73
2023/09/26 01:58:12;;;;;;;0.00;0.00;;;21.80;98.30;;;;;;5062635;28;20413;-74
2023/09/26 02:00:38;;;;;;;0.00;0.00;;;21.80;98.50;;;;;;5044033;28;20428;-74
2023/09/26 02:03:05;;;;;;;0.00;0.00;;;21.80;98.60;;;;;;5047053;28;20409;-73
2023/09/26 02:05:31;;;;;;;0.00;0.00;;;21.80;98.70;;;;;;5046713;28;20410;-74
2023/09/26 02:07:57;;;;;;;0.00;0.00;;;21.80;98.70;;;;;;5035457;28;20413;-74
2023/09/26 02:10:24;;;;;;;0.00;0.00;;;21.80;98.80;;;;;;5043044;28;20401;-73
2023/09/26 02:12:51;;;;;;;0.00;0.00;;;21.70;98.90;;;;;;5046863;28;20421;-74
2023/09/26 02:15:17;;;;;;;0.00;0.00;;;21.70;99.00;;;;;;5029436;28;20477;-74
2023/09/26 02:17:44;;;;;;;0.00;0.00;;;21.60;99.10;;;;;;5036311;28;20784;-74
2023/09/26 02:20:14;;;;;;;0.00;0.00;;;21.70;99.20;;;;;;5014037;28;20419;-74
2023/09/26 02:23:00;;;;;;;0.00;0.00;;;21.70;99.30;;;;;;5039481;28;20409;-74
2023/09/26 02:25:27;;;;;;;0.00;0.00;;;21.70;99.20;;;;;;5042563;28;21033;-73
2023/09/26 02:27:53;;;;;;;0.00;0.00;;;21.60;99.10;;;;;;5049240;28;20409;-74
2023/09/26 02:30:26;;;;;;;0.00;0.00;;;21.50;99.20;;;;;;5026861;28;20414;-74
2023/09/26 02:32:54;;;;;;;0.00;0.00;;;21.50;99.30;;;;;;5048727;28;20469;-74
2023/09/26 02:35:21;;;;;;;0.00;0.00;;;21.50;99.50;;;;;;5042506;28;20429;-74
2023/09/26 02:37:49;;;;;;;0.00;0.00;;;21.50;99.60;;;;;;5049652;28;20421;-74
2023/09/26 02:40:16;;;;;;;0.00;0.00;;;21.50;99.60;;;;;;5049650;28;20428;-74
2023/09/26 02:42:46;;;;;;;0.00;0.00;;;21.40;99.90;;;;;;5043109;28;20472;-73
2023/09/26 02:45:13;;;;;;;0.00;0.00;;;21.50;99.90;;;;;;5034644;28;20464;-74
2023/09/26 02:47:40;;;;;;;0.00;0.00;;;21.50;99.90;;;;;;5047270;28;20421;-74
2023/09/26 02:50:07;;;;;;;0.00;0.00;;;21.50;99.90;;;;;;5032188;28;20456;-74
2023/09/26 02:52:34;;;;;;;0.00;0.00;;;21.40;99.90;;;;;;5048035;28;20456;-74
2023/09/26 02:55:02;;;;;;;0.00;0.00;;;21.50;99.90;;;;;;5042331;28;20519;-74
2023/09/26 02:57:28;;;;;;;0.00;0.00;;;21.50;99.90;;;;;;5028255;28;20408;-74
2023/09/26 02:59:54;;;;;;;0.00;0.00;;;21.40;99.90;;;;;;5085989;28;20496;-74
2023/09/26 03:02:21;;;;;;;0.00;0.00;;;21.40;99.90;;;;;;5059569;28;20399;-73
2023/09/26 03:04:48;;;;;;;0.00;0.00;;;21.40;99.90;;;;;;5089582;28;20506;-73
2023/09/26 03:07:16;;;;;;;0.00;0.00;;;21.40;99.90;;;;;;5068690;28;20410;-73
2023/09/26 03:09:43;;;;;;;0.00;0.00;;;21.40;99.90;;;;;;5078663;28;20425;-74
2023/09/26 03:12:09;;;;;;;0.00;0.00;;;21.40;99.90;;;;;;5045891;28;20472;-74
2023/09/26 03:14:35;;;;;;;0.00;0.00;;;21.40;99.90;;;;;;5057639;28;20757;-74
2023/09/26 03:17:05;;;;;;;0.00;0.00;;;21.30;99.90;;;;;;5088845;28;20397;-74
2023/09/26 03:19:31;;;;;;;0.00;0.00;;;21.30;99.90;;;;;;5090658;28;20410;-74
2023/09/26 03:21:58;;;;;;;0.00;0.00;;;21.30;99.70;;;;;;5078012;28;20425;-74
2023/09/26 03:24:24;;;;;;;0.00;0.00;;;21.30;99.50;;;;;;5054976;28;20450;-74
2023/09/26 03:26:50;;;;;;;0.00;0.00;;;21.20;98.90;;;;;;5054373;28;20431;-74
2023/09/26 03:29:16;;;;;;;0.00;0.00;;;21.20;99.10;;;;;;5050723;28;20406;-74
2023/09/26 03:31:44;;;;;;;0.00;0.00;;;21.30;99.00;;;;;;5081687;28;20512;-74
2023/09/26 03:34:10;;;;;;;0.00;0.00;;;21.30;99.00;;;;;;5060219;28;20779;-74
2023/09/26 03:36:37;;;;;;;0.00;0.00;;;21.20;99.10;;;;;;5088668;28;20402;-72
2023/09/26 03:39:04;;;;;;;0.00;0.00;;;21.30;98.90;;;;;;5059818;28;20420;-74
2023/09/26 03:41:32;;;;;;;0.00;0.00;;;21.30;98.90;;;;;;5070218;28;20405;-73
2023/09/26 03:44:00;;;;;;;0.00;0.00;;;21.30;98.80;;;;;;5082300;28;20736;-74
2023/09/26 03:46:26;;;;;;;0.00;0.00;;;21.30;98.80;;;;;;5062459;28;20804;-73
2023/09/26 03:48:53;;;;;;;0.00;0.00;;;21.30;98.80;;;;;;5060844;28;20408;-74
2023/09/26 03:51:19;;;;;;;0.00;0.00;;;21.30;98.70;;;;;;5078814;28;20444;-73
2023/09/26 03:53:46;;;;;;;0.00;0.00;;;21.20;98.60;;;;;;5062397;28;20406;-74
2023/09/26 03:56:15;;;;;;;0.00;0.00;;;21.20;98.50;;;;;;5059810;28;20481;-74
2023/09/26 03:58:43;;;;;;;0.00;0.00;;;21.20;98.60;;;;;;5063841;28;20414;-74
2023/09/26 04:01:16;;;;;;;0.00;0.00;;;21.10;98.50;;;;;;5083330;28;20468;-73
2023/09/26 04:03:48;;;;;;;0.00;0.00;;;21.10;98.50;;;;;;5059206;28;20570;-73
2023/09/26 04:06:18;;;;;;;0.00;0.00;;;21.10;98.60;;;;;;5062631;28;20408;-74
2023/09/26 04:08:45;;;;;;;0.00;0.00;;;21.10;99.00;;;;;;5057244;28;20485;-73
2023/09/26 04:11:16;;;;;;;0.00;0.00;;;21.10;98.70;;;;;;5051103;28;20447;-74
2023/09/26 04:13:44;;;;;;;0.00;0.00;;;21.20;98.70;;;;;;5081974;28;20402;-74
2023/09/26 04:16:11;;;;;;;0.00;0.00;;;21.10;98.60;;;;;;5074075;28;20476;-74
2023/09/26 04:18:38;;;;;;;0.00;0.00;;;21.20;98.50;;;;;;5054568;28;20438;-74
2023/09/26 04:21:06;;;;;;;0.00;0.00;;;21.10;98.30;;;;;;5070348;28;20435;-74
2023/09/26 04:23:32;;;;;;;0.00;0.00;;;21.20;98.20;;;;;;5077017;28;20746;-74
2023/09/26 04:25:59;;;;;;;0.00;0.00;;;21.10;98.20;;;;;;5065255;28;20413;-74
2023/09/26 04:28:25;;;;;;;0.00;0.00;;;21.10;98.20;;;;;;5080845;28;20508;-74
2023/09/26 04:30:51;;;;;;;0.00;0.00;;;21.20;98.30;;;;;;5079056;28;20633;-74
2023/09/26 04:33:18;;;;;;;0.00;0.00;;;21.20;98.30;;;;;;5080186;28;20409;-73
2023/09/26 04:35:44;;;;;;;0.00;0.00;;;21.20;98.40;;;;;;5067035;28;20444;-73
2023/09/26 04:38:10;;;;;;;0.00;0.00;;;21.20;98.80;;;;;;5065163;28;20418;-74
2023/09/26 04:40:36;;;;;;;0.00;0.00;;;21.20;98.70;;;;;;5070476;28;20398;-74
2023/09/26 04:43:06;;;;;;;0.00;0.00;;;21.20;98.80;;;;;;5044596;28;20399;-74
2023/09/26 04:45:34;;;;;;;0.00;0.00;;;21.20;98.90;;;;;;5080342;28;20879;-73
2023/09/26 04:48:03;;;;;;;0.00;0.00;;;21.20;98.90;;;;;;5052286;28;20403;-73
2023/09/26 04:50:31;;;;;;;0.00;0.00;;;21.20;99.00;;;;;;5045699;28;20438;-73
2023/09/26 04:52:59;;;;;;;0.00;0.00;;;21.30;99.30;;;;;;5075815;28;20411;-73
2023/09/26 04:55:28;;;;;;;0.00;0.00;;;21.30;99.40;;;;;;5045443;28;21099;-74
2023/09/26 04:57:54;;;;;;;0.00;0.00;;;21.30;99.70;;;;;;5080272;28;20523;-74
2023/09/26 05:00:21;;;;;;;0.00;0.00;;;21.40;99.80;;;;;;5050772;28;20439;-74
2023/09/26 05:02:51;;;;;;;0.00;0.00;;;21.40;99.90;;;;;;5084304;28;20889;-74
2023/09/26 05:05:21;;;;;;;0.00;0.00;;;21.40;99.90;;;;;;5059635;28;20766;-73
2023/09/26 05:07:49;;;;;;;0.00;0.00;;;21.50;99.90;;;;;;5069527;28;20540;-74
2023/09/26 05:10:16;;;;;;;0.00;0.00;;;21.60;99.90;;;;;;5057286;28;20948;-74
2023/09/26 05:12:44;;;;;;;0.00;0.00;;;21.60;99.90;;;;;;5050232;28;20494;-73
2023/09/26 05:15:13;;;;;;;0.00;0.00;;;21.70;99.90;;;;;;5073195;28;20396;-74
2023/09/26 05:17:50;;;;;;;0.00;0.00;;;21.70;99.90;;;;;;5082423;28;20411;-74
2023/09/26 05:20:17;;;;;;;0.00;0.00;;;21.80;99.90;;;;;;5056142;28;20410;-75
2023/09/26 05:22:46;;;;;;;0.00;0.00;;;21.90;99.90;;;;;;5056884;28;20410;-75
2023/09/26 05:25:14;;;;;;;0.00;0.00;;;21.90;99.90;;;;;;5055329;28;20475;-75
2023/09/26 05:27:43;;;;;;;0.00;0.00;;;22.00;99.90;;;;;;5038152;28;20405;-75
2023/09/26 05:30:11;;;;;;;0.00;0.00;;;22.00;99.90;;;;;;5058501;28;20398;-75
2023/09/26 05:32:39;;;;;;;0.00;0.00;;;22.10;99.90;;;;;;5061140;28;21084;-74
2023/09/26 05:35:08;;;;;;;0.00;0.00;;;22.10;99.90;;;;;;5044131;28;20743;-74
2023/09/26 05:37:36;;;;;;;0.00;0.00;;;22.20;99.90;;;;;;5053846;28;20395;-75
2023/09/26 05:40:09;;;;;;;0.00;0.00;;;22.20;99.90;;;;;;5037300;28;20429;-74
2023/09/26 05:42:37;;;;;;;0.00;0.00;;;22.30;99.90;;;;;;5080150;28;20398;-74
2023/09/26 05:45:08;;;;;;;0.00;0.00;;;22.30;99.90;;;;;;5064361;28;20403;-74
2023/09/26 05:47:35;;;;;;;0.00;0.00;;;22.40;99.90;;;;;;5035461;28;20434;-74
2023/09/26 05:50:03;;;;;;;0.00;0.00;;;22.40;99.90;;;;;;5050225;28;20402;-74
2023/09/26 05:52:30;;;;;;;0.00;0.00;;;22.50;99.90;;;;;;5085809;28;20414;-74
2023/09/26 05:54:56;;;;;;;0.00;0.00;;;22.60;99.90;;;;;;5073607;28;20401;-74
2023/09/26 05:57:23;;;;;;;0.00;0.00;;;22.60;99.90;;;;;;5058505;28;20405;-74
2023/09/26 05:59:49;;;;;;;0.00;0.00;;;22.70;99.90;;;;;;5047935;28;20421;-74
2023/09/26 06:02:17;;;;;;;0.00;0.00;;;22.70;99.90;;;;;;5067138;28;20416;-74
2023/09/26 06:04:45;;;;;;;0.00;0.00;;;22.70;99.90;;;;;;5085805;28;20418;-74
2023/09/26 06:07:12;;;;;;;0.00;0.00;;;22.80;99.90;;;;;;5041310;28;20399;-74
2023/09/26 06:09:39;;;;;;;0.00;0.00;;;22.90;99.90;;;;;;5053078;28;20411;-74
2023/09/26 06:12:06;;;;;;;0.00;0.00;;;22.90;99.90;;;;;;5072320;28;20728;-74
2023/09/26 06:14:34;;;;;;;0.00;0.00;;;23.00;99.90;;;;;;5048308;28;20410;-74
2023/09/26 06:17:00;;;;;;;0.00;0.00;;;23.00;99.90;;;;;;5068438;28;20404;-74
2023/09/26 06:19:27;;;;;;;0.00;0.00;;;23.00;99.90;;;;;;5037508;28;20450;-74
2023/09/26 06:21:53;;;;;;;0.00;0.00;;;23.10;99.90;;;;;;5041731;28;20398;-74
2023/09/26 06:24:23;;;;;;;0.00;0.00;;;23.10;99.90;;;;;;5075418;28;20411;-74
2023/09/26 06:26:50;;;;;;;0.00;0.00;;;23.20;99.90;;;;;;5061015;28;20402;-74
2023/09/26 06:29:16;;;;;;;0.00;0.00;;;23.20;99.90;;;;;;5081923;28;20410;-74
2023/09/26 06:31:42;;;;;;;0.00;0.00;;;23.30;99.90;;;;;;5062490;28;20409;-74
2023/09/26 06:34:10;;;;;;;0.00;0.00;;;23.30;99.90;;;;;;5057079;28;20495;-74
2023/09/26 06:36:37;;;;;;;0.00;0.00;;;23.40;99.90;;;;;;5077706;28;20430;-74
2023/09/26 06:39:04;;;;;;;0.00;0.00;;;23.50;99.90;;;;;;5082867;28;20414;-74
2023/09/26 06:41:30;;;;;;;0.00;0.00;;;23.50;99.90;;;;;;5060534;28;21149;-74
2023/09/26 06:43:58;;;;;;;0.00;0.00;;;23.60;99.90;;;;;;5047303;28;20409;-74
2023/09/26 06:46:24;;;;;;;0.00;0.00;;;23.60;99.90;;;;;;5043958;28;20478;-74
2023/09/26 06:48:52;;;;;;;0.00;0.00;;;23.70;99.90;;;;;;5048669;28;20445;-75
2023/09/26 06:51:18;;;;;;;0.00;0.00;;;23.80;99.90;;;;;;5058379;28;20398;-74
2023/09/26 06:53:45;;;;;;;0.00;0.00;;;23.80;99.90;;;;;;5068661;28;20398;-75
2023/09/26 06:56:11;;;;;;;0.00;0.00;;;23.90;99.90;;;;;;5053603;28;20403;-75
2023/09/26 06:58:39;;;;;;;0.00;0.00;;;24.00;99.90;;;;;;5060113;28;20938;-74
2023/09/26 07:01:15;;;;;;;0.00;0.00;;;24.00;99.90;;;;;;5040131;28;20830;-75
2023/09/26 07:03:42;;;;;;;0.00;0.00;;;24.10;99.90;;;;;;5057665;28;20413;-74
2023/09/26 07:06:10;;;;;;;0.00;0.00;;;24.10;99.90;;;;;;5063018;28;20407;-74
2023/09/26 07:08:43;;;;;;;0.00;0.00;;;24.20;99.90;;;;;;5050179;28;20953;-74
2023/09/26 07:11:10;;;;;;;0.00;0.00;;;24.30;99.90;;;;;;5058993;28;20409;-74
2023/09/26 07:13:37;;;;;;;0.00;0.00;;;24.30;99.90;;;;;;5066308;28;20478;-74
2023/09/26 07:16:07;;;;;;;0.00;0.00;;;24.40;99.90;;;;;;5054637;28;20494;-74
2023/09/26 07:18:36;;;;;;;0.00;0.00;;;24.50;99.90;;;;;;5065752;28;20489;-74
2023/09/26 07:21:06;;;;;;;0.00;0.00;;;24.60;99.90;;;;;;5040445;28;20411;-74
2023/09/26 07:23:35;;;;;;;0.00;0.00;;;24.60;99.90;;;;;;5060335;28;20460;-74
2023/09/26 07:26:13;;;;;;;0.00;0.00;;;24.70;99.90;;;;;;5067166;28;20576;-74
2023/09/26 07:28:41;;;;;;;0.00;0.00;;;24.80;99.90;;;;;;5064054;28;20885;-74
2023/09/26 07:31:11;;;;;;;0.00;0.00;;;24.80;99.90;;;;;;5060412;28;20405;-74
2023/09/26 07:33:41;;;;;;;0.00;0.00;;;24.90;99.90;;;;;;5047692;28;20402;-74
2023/09/26 07:36:09;;;;;;;0.00;0.00;;;24.90;99.90;;;;;;5035796;28;20408;-74
2023/09/26 07:38:36;;;;;;;0.00;0.00;;;25.00;99.90;;;;;;5046450;28;21499;-75
2023/09/26 07:41:03;;;;;;;0.00;0.00;;;25.10;99.90;;;;;;5065942;28;20442;-75
2023/09/26 07:43:32;;;;;;;0.00;0.00;;;25.20;99.90;;;;;;5040954;28;20406;-74
2023/09/26 07:46:06;;;;;;;0.00;0.00;;;25.30;99.90;;;;;;5049740;28;20646;-73
2023/09/26 07:48:34;;;;;;;0.00;0.00;;;25.40;99.90;;;;;;5058918;28;20412;-73
2023/09/26 07:51:02;;;;;;;0.00;0.00;;;25.50;99.90;;;;;;5061880;28;21177;-74
2023/09/26 07:53:28;;;;;;;0.00;0.00;;;25.60;99.90;;;;;;5058587;28;20393;-74
2023/09/26 07:55:56;;;;;;;0.00;0.00;;;25.70;99.90;;;;;;5054126;28;20419;-74
2023/09/26 07:58:23;;;;;;;0.00;0.00;;;25.70;99.90;;;;;;5076974;28;20535;-74
2023/09/26 08:00:52;;;;;;;0.00;0.00;;;25.80;99.90;;;;;;5068363;28;20407;-74
2023/09/26 08:03:18;;;;;;;0.00;0.00;;;25.80;99.90;;;;;;5063070;28;20405;-74
2023/09/26 08:05:44;;;;;;;0.00;0.00;;;26.00;99.90;;;;;;5056796;28;20408;-73
2023/09/26 08:08:11;;;;;;;0.00;0.00;;;26.10;99.90;;;;;;5090374;28;20906;-73
2023/09/26 08:10:39;;;;;;;0.00;0.00;;;26.10;99.90;;;;;;5073474;28;20411;-73
2023/09/26 08:13:07;;;;;;;0.00;0.00;;;26.20;99.90;;;;;;5089947;28;20425;-73
2023/09/26 08:15:36;;;;;;;0.00;0.00;;;26.30;99.90;;;;;;5085407;28;21073;-73
2023/09/26 08:18:04;;;;;;;0.00;0.00;;;26.30;99.90;;;;;;5064909;28;20402;-74
2023/09/26 08:20:31;;;;;;;0.00;0.00;;;26.40;99.90;;;;;;5059090;28;20405;-73
2023/09/26 08:22:58;;;;;;;0.10;0.10;;;26.40;99.90;;;;;;5063985;28;20409;-74
2023/09/26 08:25:25;;;;;;;0.00;0.00;;;26.50;99.90;;;;;;5084210;28;20495;-73
2023/09/26 08:27:51;;;;;;;0.00;0.00;;;26.50;99.90;;;;;;5062587;28;20422;-73
2023/09/26 08:30:17;;;;;;;0.03;0.03;;;26.60;99.90;;;;;;5062679;28;20402;-74
2023/09/26 08:32:45;;;;;;;0.00;0.00;;;26.60;99.90;;;;;;5047498;28;20457;-74
2023/09/26 08:35:11;;;;;;;0.00;0.00;;;26.70;99.90;;;;;;5070648;28;21144;-73
2023/09/26 08:37:40;;;;;;;0.10;0.10;;;26.80;99.90;;;;;;5076201;28;20404;-73
2023/09/26 08:40:10;;;;;;;0.00;0.00;;;26.80;99.90;;;;;;5069560;28;20504;-74
2023/09/26 08:42:42;;;;;;;0.00;0.00;;;26.90;99.90;;;;;;5055845;28;20410;-74
2023/09/26 08:45:10;;;;;;;0.00;0.00;;;27.00;99.90;;;;;;5061439;28;20400;-74
2023/09/26 08:47:42;;;;;;;0.10;0.10;;;27.10;99.90;;;;;;5080202;28;20519;-74
2023/09/26 08:50:09;;;;;;;0.00;0.00;;;27.10;99.90;;;;;;5082741;28;20398;-73
2023/09/26 08:52:35;;;;;;;0.10;0.10;;;27.20;99.90;;;;;;5043968;28;20402;-73
2023/09/26 08:55:03;;;;;;;0.03;0.03;;;27.30;99.90;;;;;;5088467;28;20451;-74
2023/09/26 08:57:34;;;;;;;0.00;0.00;;;27.50;99.90;;;;;;5067458;28;20476;-74
2023/09/26 09:00:07;;;;;;;0.00;0.00;;;27.50;99.90;;;;;;5074085;28;21086;-74
2023/09/26 09:02:34;;;;;;;0.00;0.00;;;27.60;99.90;;;;;;5058586;28;20500;-74
2023/09/26 09:05:00;;;;;;;0.10;0.10;;;27.60;99.90;;;;;;5065405;28;20406;-74
2023/09/26 09:07:27;;;;;;;0.10;0.10;;;27.70;99.90;;;;;;5065533;28;21115;-73
2023/09/26 09:10:16;;;;;;;0.10;0.10;;;27.80;99.90;;;;;;5070268;28;20410;-73
2023/09/26 09:12:50;;;;;;;0.00;0.00;;;27.80;99.90;;;;;;5043533;28;20416;-74
2023/09/26 09:15:17;;;;;;;0.10;0.10;;;27.80;99.90;;;;;;5054256;28;20445;-74
2023/09/26 09:17:44;;;;;;;0.00;0.00;;;27.90;99.90;;;;;;5085112;28;20410;-73
2023/09/26 09:20:16;;;;;;;0.10;0.10;;;28.00;99.90;;;;;;5087910;28;20903;-74
2023/09/26 09:22:46;;;;;;;0.00;0.00;;;28.10;99.90;;;;;;5084715;28;20433;-71
2023/09/26 09:25:13;;;;;;;0.05;0.05;;;28.30;99.90;;;;;;5078124;28;20405;-73
2023/09/26 09:27:43;;;;;;;0.03;0.03;;;28.50;99.90;;;;;;5086026;28;20479;-73
2023/09/26 09:30:12;;;;;;;0.10;0.10;;;28.70;99.90;;;;;;5052382;28;20961;-73
2023/09/26 09:32:43;;;;;;;0.10;0.10;;;28.80;99.90;;;;;;5040018;28;20408;-73
2023/09/26 09:35:14;;;;;;;0.00;0.00;;;28.90;99.90;;;;;;5049004;28;20442;-73
2023/09/26 09:37:46;;;;;;;0.10;0.10;;;29.00;99.90;;;;;;5045173;28;20497;-73
2023/09/26 09:40:22;;;;;;;0.10;0.10;;;29.10;99.90;;;;;;5068555;28;20488;-73
2023/09/26 09:42:50;;;;;;;0.00;0.00;;;29.20;99.90;;;;;;5043249;28;20403;-73
2023/09/26 09:45:18;;;;;;;0.10;0.10;;;29.30;99.90;;;;;;5080088;28;20983;-72
2023/09/26 09:47:48;;;;;;;0.10;0.10;;;29.40;99.90;;;;;;5069223;28;20420;-73
2023/09/26 09:50:16;;;;;;;0.10;0.10;;;29.50;99.90;;;;;;5069520;28;20814;-73
2023/09/26 09:52:44;;;;;;;0.10;0.10;;;29.60;99.90;;;;;;5084391;28;21137;-73
2023/09/26 09:55:21;;;;;;;0.10;0.10;;;29.70;99.90;;;;;;5080404;28;20422;-74
2023/09/26 09:57:53;;;;;;;0.08;0.08;;;29.80;99.90;;;;;;5087441;28;21084;-73
2023/09/26 10:00:24;;;;;;;0.10;0.10;;;29.90;99.90;;;;;;5073331;28;20473;-73
2023/09/26 10:02:52;;;;;;;0.10;0.10;;;30.10;99.90;;;;;;5059220;28;20398;-73
2023/09/26 10:05:20;;;;;;;0.10;0.10;;;30.20;99.90;;;;;;5054546;28;20406;-74
2023/09/26 10:07:49;;;;;;;0.05;0.05;;;30.40;99.90;;;;;;5062698;28;20407;-74
2023/09/26 10:10:18;;;;;;;0.08;0.08;;;30.50;99.90;;;;;;5081938;28;20413;-74
2023/09/26 10:12:46;;;;;;;0.10;0.10;;;30.60;99.90;;;;;;5088374;28;20852;-74
2023/09/26 10:15:16;;;;;;;0.10;0.10;;;30.70;99.90;;;;;;5063986;28;20496;-74
2023/09/26 10:17:51;;;;;;;0.10;0.10;;;30.80;99.90;;;;;;5087863;28;20492;-74
2023/09/26 10:20:17;;;;;;;0.10;0.10;;;30.90;99.90;;;;;;5069630;28;20653;-73
2023/09/26 10:22:45;;;;;;;0.10;0.10;;;30.90;99.90;;;;;;5068529;28;20926;-74
2023/09/26 10:25:19;;;;;;;0.10;0.10;;;30.90;99.90;;;;;;5077689;28;20560;-74
2023/09/26 10:27:47;;;;;;;0.10;0.10;;;30.70;99.90;;;;;;5071206;28;20407;-74
2023/09/26 12:41:33;;;;;;;0.00;0.00;;;29.50;99.90;;;;;;5111162;27;21233;-73
2023/09/26 12:43:59;;;;;;;0.00;0.00;;;29.40;99.90;;;;;;5106006;28;20289;-72
2023/09/26 12:46:26;;;;;;;0.00;0.00;;;29.40;99.90;;;;;;5111370;28;20185;-73
2023/09/26 12:48:52;;;;;;;0.00;0.00;;;29.40;99.90;;;;;;5105461;27;20177;-73
2023/09/26 12:51:18;;;;;;;0.00;0.00;;;29.40;99.90;;;;;;5123073;27;20241;-73
2023/09/26 12:53:47;;;;;;;0.00;0.00;;;29.40;99.90;;;;;;5098952;28;20193;-72
2023/09/26 12:56:13;;;;;;;0.00;0.00;;;29.40;99.90;;;;;;5104770;28;20282;-72
2023/09/26 12:58:39;;;;;;;0.00;0.00;;;29.40;99.90;;;;;;5121079;28;20176;-73
2023/09/26 13:01:05;;;;;;;0.00;0.00;;;29.40;99.90;;;;;;5122235;27;20244;-73
2023/09/26 13:03:32;;;;;;;0.00;0.00;;;29.40;99.90;;;;;;5118617;28;20178;-72
2023/09/26 13:05:58;;;;;;;0.00;0.00;;;29.40;99.90;;;;;;5121415;28;20548;-73
2023/09/26 13:08:24;;;;;;;0.00;0.00;;;29.40;99.90;;;;;;5101736;28;20217;-72
2023/09/26 13:10:51;;;;;;;0.00;0.00;;;29.40;99.90;;;;;;5110297;28;20193;-73
2023/09/26 13:13:17;;;;;;;0.00;0.00;;;29.40;99.90;;;;;;5083981;28;20194;-73
2023/09/26 13:15:44;;;;;;;0.00;0.00;;;29.40;99.90;;;;;;5111634;28;20212;-72
2023/09/26 13:18:10;;;;;;;0.00;0.00;;;29.40;99.90;;;;;;5124800;28;20185;-72
2023/09/26 13:20:37;;;;;;;0.00;0.00;;;29.40;99.90;;;;;;5112744;28;20303;-72
2023/09/26 13:23:03;;;;;;;0.00;0.00;;;29.30;99.90;;;;;;5103488;28;20181;-72
2023/09/26 13:25:30;;;;;;;0.00;0.00;;;29.30;99.90;;;;;;5131976;27;20817;-72
2023/09/26 13:27:56;;;;;;;0.00;0.00;;;29.20;99.90;;;;;;5111027;28;20185;-72
2023/09/26 13:30:22;;;;;;;0.00;0.00;;;29.20;99.90;;;;;;5111933;27;20186;-73
2023/09/26 13:32:48;;;;;;;0.00;0.00;;;29.20;99.90;;;;;;5084176;28;20218;-73
2023/09/26 13:35:15;;;;;;;0.00;0.00;;;29.10;99.90;;;;;;5114409;28;20181;-73
2023/09/26 13:37:41;;;;;;;0.00;0.00;;;29.20;99.90;;;;;;5129054;27;20242;-73
2023/09/26 13:40:08;;;;;;;0.00;0.00;;;29.10;99.90;;;;;;5098795;28;20245;-74
2023/09/26 13:42:35;;;;;;;0.00;0.00;;;29.10;99.90;;;;;;5139595;27;20917;-73
2023/09/26 13:45:02;;;;;;;0.00;0.00;;;29.00;99.90;;;;;;5107792;28;20211;-74
2023/09/26 13:47:28;;;;;;;0.00;0.00;;;29.10;99.90;;;;;;5091934;28;20182;-73
2023/09/26 13:49:55;;;;;;;0.00;0.00;;;29.00;99.90;;;;;;5125011;27;20269;-73
2023/09/26 13:52:22;;;;;;;0.00;0.00;;;29.00;99.90;;;;;;5105520;28;20190;-72
2023/09/26 13:54:50;;;;;;;0.00;0.00;;;29.00;99.90;;;;;;5095124;28;20182;-72
2023/09/26 13:57:18;;;;;;;0.00;0.00;;;28.90;99.90;;;;;;5087942;28;20239;-73
2023/09/26 13:59:47;;;;;;;0.00;0.00;;;28.90;99.90;;;;;;5107115;28;20210;-72
2023/09/26 14:02:13;;;;;;;0.00;0.00;;;28.90;99.90;;;;;;5070009;28;20637;-71
2023/09/26 14:04:39;;;;;;;0.00;0.00;;;28.90;99.90;;;;;;5089349;28;20174;-72
2023/09/26 14:07:05;;;;;;;0.00;0.00;;;28.80;99.90;;;;;;5085470;28;20182;-73
2023/09/26 14:09:32;;;;;;;0.00;0.00;;;28.70;99.90;;;;;;5103608;28;20181;-74
2023/09/26 14:11:58;;;;;;;0.00;0.00;;;28.70;99.90;;;;;;5106400;28;20289;-73
2023/09/26 14:14:24;;;;;;;0.00;0.00;;;28.70;99.90;;;;;;5093717;28;20276;-73
2023/09/26 14:16:50;;;;;;;0.00;0.00;;;28.70;99.90;;;;;;5104491;28;20193;-73
2023/09/26 14:19:17;;;;;;;0.00;0.00;;;28.70;99.90;;;;;;5105261;28;20189;-73
2023/09/26 14:21:43;;;;;;;0.00;0.00;;;28.70;99.90;;;;;;5080227;28;20175;-73
2023/09/26 14:24:09;;;;;;;0.00;0.00;;;28.60;99.90;;;;;;5105866;28;20193;-73
2023/09/26 14:26:35;;;;;;;0.00;0.00;;;28.60;99.90;;;;;;5093817;28;20257;-73
2023/09/26 14:29:01;;;;;;;0.00;0.00;;;28.50;99.90;;;;;;5106835;28;20182;-73
2023/09/26 14:31:28;;;;;;;0.00;0.00;;;28.40;99.90;;;;;;5090374;28;20193;-73
2023/09/26 14:33:55;;;;;;;0.00;0.00;;;28.50;99.90;;;;;;5071367;28;20235;-73
2023/09/26 14:36:21;;;;;;;0.00;0.00;;;28.40;99.90;;;;;;5094966;28;20185;-73
2023/09/26 14:38:47;;;;;;;0.00;0.00;;;28.40;99.90;;;;;;5089455;28;20588;-73
2023/09/26 14:41:14;;;;;;;0.00;0.00;;;28.30;99.90;;;;;;5098776;28;20230;-73
2023/09/26 14:43:40;;;;;;;0.00;0.00;;;28.30;99.90;;;;;;5089829;28;20300;-73
2023/09/26 14:46:07;;;;;;;0.00;0.00;;;28.30;99.90;;;;;;5080516;28;20190;-73
2023/09/26 14:48:34;;;;;;;0.00;0.00;;;28.30;99.90;;;;;;5081012;28;20196;-73
2023/09/26 14:51:00;;;;;;;0.00;0.00;;;28.30;99.90;;;;;;5073454;28;20194;-73
2023/09/26 14:53:27;;;;;;;0.00;0.00;;;28.20;99.90;;;;;;5090505;28;20174;-74
2023/09/26 14:55:53;;;;;;;0.00;0.00;;;28.20;99.90;;;;;;5069315;28;20245;-73
2023/09/26 14:58:20;;;;;;;0.00;0.00;;;28.10;99.90;;;;;;5097637;28;20202;-72
2023/09/26 15:00:47;;;;;;;0.00;0.00;;;28.10;99.90;;;;;;5083617;28;20198;-72